This is the latest recevied weather packets stored in our database for station/object I8ZSE-10. If no packets are shown the sender has not sent any weather packets the latest 10 day(s).
| Time | Temp. | Humidity | Pressure | Rain* | Wind** | Luminosity | Snow |
|---|---|---|---|---|---|---|---|
| 1777946408 | 10.56° C | 69% | 1017.2 hPa | 0 mm | - | - | - |
| 1777945808 | 11.11° C | 67% | 1017.4 hPa | 0 mm | - | - | - |
| 1777945209 | 11.11° C | 67% | 1017.4 hPa | 0 mm | - | - | - |
| 1777944608 | 11.11° C | 68% | 1017.4 hPa | 0 mm | - | - | - |
| 1777944008 | 11.11° C | 68% | 1017.4 hPa | 0 mm | - | - | - |
| 1777943408 | 11.11° C | 68% | 1017.3 hPa | 0 mm | - | - | - |
| 1777942808 | 11.11° C | 68% | 1017.3 hPa | 0 mm | - | - | - |
| 1777942208 | 11.67° C | 68% | 1017.4 hPa | 0 mm | - | - | - |
| 1777941609 | 11.67° C | 69% | 1017.5 hPa | 0 mm | - | - | - |
| 1777941008 | 11.67° C | 68% | 1017.7 hPa | 0 mm | - | - | - |
| 1777940408 | 12.22° C | 67% | 1018 hPa | 0 mm | - | - | - |
| 1777939808 | 11.67° C | 69% | 1017.9 hPa | 0 mm | - | - | - |
| 1777939208 | 11.67° C | 69% | 1018 hPa | 0 mm | - | - | - |
| 1777938608 | 12.22° C | 66% | 1018.3 hPa | 0 mm | - | - | - |
| 1777938008 | 12.22° C | 64% | 1018.3 hPa | 0 mm | - | - | - |
| 1777937409 | 12.78° C | 62% | 1018.5 hPa | 0 mm | - | - | - |
| 1777936808 | 12.78° C | 61% | 1018.6 hPa | 0 mm | - | - | - |
| 1777936208 | 12.78° C | 60% | 1018.8 hPa | 0 mm | - | - | - |
| 1777935608 | 13.33° C | 60% | 1018.9 hPa | 0 mm | - | - | - |
| 1777935008 | 13.33° C | 58% | 1019.1 hPa | 0 mm | - | - | - |
| 1777934408 | 13.33° C | 58% | 1019.1 hPa | 0 mm | - | - | - |
| 1777933808 | 13.89° C | 57% | 1019.1 hPa | 0 mm | - | - | - |
| 1777933208 | 13.89° C | 55% | 1019.3 hPa | 0 mm | - | - | - |
| 1777932608 | 13.89° C | 55% | 1019.2 hPa | 0 mm | - | - | - |
| 1777932008 | 13.89° C | 54% | 1019.3 hPa | 0 mm | - | - | - |
* Rain latest hour (hover to see other rain measurements)
** Current wind speed in m/s (hover to see current wind gust speed)